Decoded Metar for GMFK (ER-RACHIDIA in MOROCCO) (IATA:ERH) | Meteo·Mobile Aviation Weather
aviador You're here:

GMFK Decoded Metar

ER-RACHIDIA in MOROCCO
Report Time2018-12-15 00:00:00
UTC Time2018-12-15 00:17:18
Flight Rules vfr VFR
Wind330° at 02 kt
W.Decomp.*RWY 31: 1.9 kt HW 0.7 kt RCW
W.Rank330° ranks 35
Current wind is below 330° avg. (8.2)
Visibility9999 m
Phenomena:N/A
Clouds:N/A
Expected CloudBase > 4,000 ft AGL from Temp-Dew spread
CeilingNone
Temp10°C (ISA +2)
Dew Point00°C (50% RH)
AAT7.3°C
QNH1027 hPa
Density Alt3,264 ft
Elevation3,428 ft
Report Wrong Elevation
Raw Report
METAR GMFK 150000Z 33002KT CAVOK 10/00 Q1027 NOSIG=

Extra information for GMFK:More info

Metar Taf Metar & Taf Last 4 Metars F.Rules Stats Wind Profile Meteogram Temp Stats Airport Information Weather charts Add Link Nearby VenuesMetar ALERT Operation Metar Decoded Social comments